Time;durP1;ratioP1;P1;durP2;ratioP2;P2;SDS_P1;SDS_P2;PMS_P1;PMS_P2;Temp;Humidity;BMP_temperature;BMP_pressure;BME280_temperature;BME280_humidity;BME280_pressure;Samples;Min_cycle;Max_cycle;Signal;HPM_P1;HPM_P2
2021/10/02 00:45:25;;;;;;;6.15;2.90;;;;;;;10.11;78.29;95825.50;5070295;28;20040;-70
2021/10/02 00:47:54;;;;;;;4.20;2.63;;;;;;;10.25;77.85;95828.09;5069524;28;20045;-70
2021/10/02 00:50:22;;;;;;;8.00;2.65;;;;;;;10.36;77.24;95827.50;5064133;28;20052;-70
2021/10/02 00:52:49;;;;;;;7.47;3.05;;;;;;;10.41;77.23;95826.91;5030186;28;20053;-70
2021/10/02 00:55:16;;;;;;;4.00;2.20;;;;;;;10.41;77.52;95827.69;5070468;28;20049;-69
2021/10/02 00:57:43;;;;;;;4.57;2.97;;;;;;;10.47;77.40;95811.22;5069286;28;20414;-69
2021/10/02 01:00:11;;;;;;;6.68;3.20;;;;;;;10.50;77.71;95826.44;5066249;28;20454;-69
2021/10/02 01:02:50;;;;;;;5.22;2.78;;;;;;;10.43;77.73;95825.69;5066039;28;20044;-69
2021/10/02 01:05:30;;;;;;;5.40;3.58;;;;;;;10.38;78.03;95815.06;5077842;28;20046;-69
2021/10/02 01:08:12;;;;;;;3.08;2.30;;;;;;;10.18;78.47;95811.69;5073340;28;20110;-69
2021/10/02 01:10:57;;;;;;;4.25;2.88;;;;;;;10.13;78.65;95813.09;5083895;28;20048;-69
2021/10/02 01:13:41;;;;;;;4.88;2.70;;;;;;;9.86;79.46;95793.31;5086216;28;20055;-69
2021/10/02 01:16:25;;;;;;;3.30;2.53;;;;;;;9.83;80.09;95809.34;5068760;28;20094;-69
2021/10/02 01:19:00;;;;;;;4.95;2.63;;;;;;;9.89;78.85;95803.34;5085628;28;20044;-69
2021/10/02 01:21:52;;;;;;;4.45;2.42;;;;;;;9.94;78.53;95806.13;5075498;28;20050;-69
2021/10/02 01:24:52;;;;;;;3.72;2.10;;;;;;;9.91;78.50;95802.13;5073530;28;20048;-69
2021/10/02 01:27:56;;;;;;;3.78;2.60;;;;;;;9.88;78.45;95791.31;5067156;28;20391;-69
2021/10/02 01:33:52;;;;;;;6.10;2.63;;;;;;;9.79;77.23;95793.31;5065147;28;20044;-69
2021/10/02 01:47:35;;;;;;;3.92;2.85;;;;;;;9.43;78.18;95793.75;5080346;28;20074;-69
2021/10/02 01:50:04;;;;;;;3.92;2.67;;;;;;;9.37;78.30;95785.75;5067789;28;20044;-69
2021/10/02 01:52:35;;;;;;;5.93;3.38;;;;;;;9.22;78.28;95772.16;5076630;28;20036;-69
2021/10/02 01:55:03;;;;;;;4.53;2.65;;;;;;;9.25;78.07;95789.94;5076145;28;20051;-69
2021/10/02 01:57:34;;;;;;;4.72;2.53;;;;;;;9.22;78.25;95792.94;5075052;28;20047;-69
2021/10/02 02:00:05;;;;;;;5.25;3.38;;;;;;;9.26;77.86;95788.94;5085853;28;20082;-69
2021/10/02 02:02:34;;;;;;;3.78;2.60;;;;;;;9.24;77.92;95787.53;5064582;28;20123;-69
2021/10/02 02:05:09;;;;;;;4.82;2.65;;;;;;;9.17;77.81;95782.34;5065864;28;20413;-69
2021/10/02 02:07:37;;;;;;;6.93;3.92;;;;;;;9.06;79.27;95798.53;5070445;28;20047;-69
2021/10/02 02:10:06;;;;;;;6.70;2.95;;;;;;;8.72;80.44;95766.47;5078463;28;20044;-70
2021/10/02 02:12:34;;;;;;;4.47;2.97;;;;;;;8.79;80.19;95793.25;5079368;28;20535;-69
2021/10/02 02:15:08;;;;;;;5.25;3.03;;;;;;;8.76;80.02;95789.25;5085536;28;20036;-69
2021/10/02 02:17:45;;;;;;;5.13;3.22;;;;;;;8.73;79.84;95791.41;5085258;28;20044;-70
2021/10/02 02:20:22;;;;;;;4.68;3.17;;;;;;;8.67;79.89;95794.81;5085769;28;20048;-69
2021/10/02 02:22:49;;;;;;;5.32;2.70;;;;;;;8.58;78.81;95782.00;5066605;28;20410;-69
2021/10/02 02:25:17;;;;;;;5.93;2.83;;;;;;;8.61;78.30;95792.00;5085945;28;20379;-69
2021/10/02 02:27:44;;;;;;;3.38;1.92;;;;;;;8.53;77.93;95784.38;5085836;28;20059;-69
2021/10/02 02:30:12;;;;;;;4.95;2.72;;;;;;;8.46;77.90;95787.94;5076709;28;20040;-69
2021/10/02 02:32:41;;;;;;;4.00;2.80;;;;;;;8.47;77.25;95795.53;5057135;28;20047;-70
2021/10/02 02:35:08;;;;;;;3.95;2.35;;;;;;;8.23;78.13;95779.44;5064664;28;20067;-69
2021/10/02 02:37:35;;;;;;;4.05;2.40;;;;;;;8.32;78.15;95787.03;5076472;28;20606;-69
2021/10/02 02:40:04;;;;;;;4.43;2.20;;;;;;;8.36;77.41;95777.91;5080240;28;20051;-69
2021/10/02 02:42:31;;;;;;;4.90;2.75;;;;;;;8.32;77.13;95787.03;5065656;28;20052;-70
2021/10/02 02:44:58;;;;;;;4.88;2.63;;;;;;;8.23;78.10;95782.03;5068403;28;20040;-69
2021/10/02 02:47:28;;;;;;;6.10;1.92;;;;;;;8.27;76.90;95786.84;5068465;28;20040;-70
2021/10/02 02:50:08;;;;;;;3.08;2.42;;;;;;;8.13;76.82;95773.00;5082150;28;20055;-70
2021/10/02 02:52:48;;;;;;;3.47;2.28;;;;;;;8.13;77.50;95783.38;5066535;28;20054;-69
2021/10/02 02:55:20;;;;;;;4.88;2.85;;;;;;;7.99;78.05;95788.47;5074826;28;20036;-69
2021/10/02 02:57:51;;;;;;;4.45;2.55;;;;;;;7.99;77.67;95782.50;5085030;28;20123;-70
2021/10/02 03:00:20;;;;;;;6.97;4.40;;;;;;;7.50;82.04;95778.19;5082914;28;20505;-69
2021/10/02 03:02:52;;;;;;;4.25;3.00;;;;;;;7.31;83.08;95769.25;5068513;28;20043;-69
2021/10/02 03:05:23;;;;;;;3.88;2.65;;;;;;;7.40;82.02;95784.50;5070765;28;20064;-70
2021/10/02 03:07:55;;;;;;;5.07;2.58;;;;;;;7.50;80.73;95783.38;5065462;28;20119;-69
2021/10/02 03:10:23;;;;;;;5.53;3.38;;;;;;;7.44;80.37;95772.75;5081343;28;20396;-69
2021/10/02 03:12:55;;;;;;;6.97;3.55;;;;;;;7.38;81.61;95780.47;5077652;28;20044;-69
2021/10/02 03:15:23;;;;;;;6.60;4.18;;;;;;;7.30;80.72;95776.22;5066507;28;20045;-70
2021/10/02 03:17:51;;;;;;;4.47;2.97;;;;;;;7.25;80.51;95781.16;5064745;28;20044;-70
2021/10/02 03:20:19;;;;;;;5.93;3.85;;;;;;;7.16;80.42;95767.53;5084062;28;20043;-70
2021/10/02 03:22:49;;;;;;;4.75;2.67;;;;;;;6.97;80.54;95740.47;5077020;28;20047;-69
2021/10/02 03:25:17;;;;;;;4.20;2.97;;;;;;;7.03;80.97;95768.22;5084931;28;20152;-70
2021/10/02 03:27:46;;;;;;;5.65;2.80;;;;;;;6.91;80.40;95769.69;5069277;28;20098;-70
2021/10/02 03:30:12;;;;;;;4.75;2.85;;;;;;;6.79;80.00;95771.97;5072173;28;20049;-70
2021/10/02 03:32:40;;;;;;;4.25;3.05;;;;;;;6.66;80.85;95762.28;5081781;28;20036;-70
2021/10/02 03:35:07;;;;;;;5.80;3.30;;;;;;;6.55;82.38;95770.50;5060924;28;20055;-70
2021/10/02 03:37:33;;;;;;;21.77;2.92;;;;;;;6.32;84.12;95771.47;5066400;28;20471;-70
2021/10/02 03:40:00;;;;;;;6.72;3.13;;;;;;;6.36;83.89;95769.31;5075267;28;20536;-70
2021/10/02 03:42:27;;;;;;;5.15;3.22;;;;;;;6.40;82.48;95772.34;5084815;28;20047;-70
2021/10/02 03:44:54;;;;;;;3.58;2.55;;;;;;;6.43;82.25;95772.78;5064751;28;20037;-70
2021/10/02 03:47:21;;;;;;;5.18;2.60;;;;;;;6.49;82.13;95771.25;5064852;28;20045;-70
2021/10/02 03:49:49;;;;;;;4.90;2.50;;;;;;;6.47;81.53;95752.53;5081946;28;20128;-69
2021/10/02 03:52:16;;;;;;;5.47;3.70;;;;;;;6.57;80.77;95763.41;5076545;28;20437;-69
2021/10/02 03:54:43;;;;;;;4.45;2.42;;;;;;;6.43;80.31;95746.91;5082024;28;20447;-69
2021/10/02 03:57:10;;;;;;;5.85;2.67;;;;;;;6.27;82.66;95763.44;5085613;28;20098;-69
2021/10/02 03:59:37;;;;;;;5.40;2.65;;;;;;;6.31;81.98;95764.69;5079468;28;20060;-69
2021/10/02 04:02:04;;;;;;;7.10;3.22;;;;;;;6.35;81.43;95770.28;5070043;28;20036;-70
2021/10/02 04:04:32;;;;;;;4.30;2.85;;;;;;;6.39;81.34;95766.38;5074954;28;20428;-70
2021/10/02 04:06:59;;;;;;;6.93;2.63;;;;;;;6.38;80.97;95758.78;5088609;28;20093;-70
2021/10/02 04:09:26;;;;;;;6.78;3.25;;;;;;;6.27;80.06;95753.09;5088561;28;20036;-69
2021/10/02 04:11:53;;;;;;;7.13;2.30;;;;;;;6.26;80.04;95761.81;5086731;28;20432;-70
2021/10/02 04:14:21;;;;;;;4.70;2.65;;;;;;;6.19;80.47;95760.16;5078638;28;20528;-70
2021/10/02 04:16:47;;;;;;;5.65;2.92;;;;;;;6.13;81.21;95746.94;5074946;28;20517;-69
2021/10/02 04:19:14;;;;;;;5.50;2.85;;;;;;;6.12;82.88;95765.22;5068164;28;20075;-70
2021/10/02 04:21:41;;;;;;;7.45;3.00;;;;;;;6.14;83.02;95763.28;5085812;28;20044;-69
2021/10/02 04:24:09;;;;;;;11.38;2.95;;;;;;;6.24;81.99;95763.78;5077267;28;20040;-69
2021/10/02 04:26:35;;;;;;;3.83;2.45;;;;;;;6.18;81.74;95764.53;5088091;28;20047;-69
2021/10/02 04:29:03;;;;;;;6.75;3.53;;;;;;;6.18;82.11;95769.69;5088127;28;20036;-69
2021/10/02 04:31:29;;;;;;;6.85;3.42;;;;;;;6.17;81.68;95773.25;5087904;28;20048;-69
2021/10/02 04:33:56;;;;;;;6.20;2.85;;;;;;;6.15;81.61;95767.47;5070987;28;20044;-69
2021/10/02 04:36:23;;;;;;;7.80;3.88;;;;;;;6.08;82.00;95764.00;5064701;28;20041;-69
2021/10/02 04:38:50;;;;;;;3.95;2.85;;;;;;;6.16;82.04;95771.66;5068090;28;20051;-69
2021/10/02 04:41:17;;;;;;;6.43;2.65;;;;;;;6.10;82.36;95767.19;5069057;28;20117;-69
2021/10/02 04:43:44;;;;;;;6.53;2.88;;;;;;;6.11;82.59;95763.63;5069586;28;20028;-70
2021/10/02 04:46:13;;;;;;;4.45;3.03;;;;;;;6.11;82.90;95768.81;5067706;28;20032;-69
2021/10/02 04:48:40;;;;;;;4.70;2.58;;;;;;;6.05;83.25;95751.41;5067625;28;20106;-69
2021/10/02 04:51:09;;;;;;;4.75;2.92;;;;;;;6.17;82.79;95775.06;5068061;28;20048;-69
2021/10/02 04:53:36;;;;;;;6.55;3.80;;;;;;;6.16;83.50;95771.66;5070160;28;20036;-69
2021/10/02 04:56:13;;;;;;;5.15;2.88;;;;;;;6.15;83.56;95774.44;5072164;28;20105;-70
2021/10/02 04:58:40;;;;;;;4.32;2.78;;;;;;;6.00;83.49;95766.69;5086073;28;20050;-70
2021/10/02 05:01:09;;;;;;;7.25;2.90;;;;;;;6.00;84.44;95758.94;5086934;28;20072;-70
2021/10/02 05:03:37;;;;;;;8.00;3.22;;;;;;;6.07;85.72;95772.75;5073528;28;20045;-69
2021/10/02 05:06:05;;;;;;;5.88;3.20;;;;;;;6.17;87.32;95775.84;5067197;28;20116;-70
2021/10/02 05:08:33;;;;;;;5.18;3.60;;;;;;;6.22;87.28;95776.09;5075905;28;20520;-70
2021/10/02 05:11:01;;;;;;;9.23;4.00;;;;;;;6.14;87.92;95765.88;5078448;28;20109;-69
2021/10/02 05:13:28;;;;;;;6.03;3.45;;;;;;;6.30;87.36;95776.03;5072982;28;20055;-70
2021/10/02 05:15:55;;;;;;;5.05;2.90;;;;;;;6.34;87.59;95773.06;5085057;28;20554;-70
2021/10/02 05:18:21;;;;;;;6.00;2.88;;;;;;;6.30;87.52;95763.09;5086853;28;20109;-70
2021/10/02 05:20:48;;;;;;;4.63;2.88;;;;;;;6.32;88.69;95773.25;5085612;28;20047;-71
2021/10/02 05:23:15;;;;;;;6.70;3.53;;;;;;;6.30;89.04;95765.69;5073411;28;20029;-70
2021/10/02 05:25:42;;;;;;;10.40;5.18;;;;;;;6.30;91.08;95770.84;5068695;28;20047;-70
2021/10/02 05:28:09;;;;;;;5.72;3.47;;;;;;;6.37;91.37;95768.31;5086229;28;20052;-70
2021/10/02 05:30:36;;;;;;;11.23;5.82;;;;;;;6.42;91.65;95770.38;5071672;28;20041;-70
2021/10/02 05:33:04;;;;;;;9.23;5.43;;;;;;;6.34;91.79;95781.63;5084207;28;20040;-70
2021/10/02 05:35:32;;;;;;;7.82;4.47;;;;;;;6.27;92.21;95765.25;5067814;28;20048;-70
2021/10/02 05:38:00;;;;;;;7.75;5.00;;;;;;;6.37;92.57;95783.06;5066406;28;20032;-71
2021/10/02 05:40:27;;;;;;;7.95;4.85;;;;;;;6.35;92.49;95778.06;5082066;28;20032;-70
2021/10/02 05:42:54;;;;;;;6.72;3.90;;;;;;;6.44;92.86;95787.31;5077997;28;20861;-70
2021/10/02 05:45:21;;;;;;;8.10;4.30;;;;;;;6.67;92.24;95788.97;5064703;28;20044;-71
2021/10/02 05:47:48;;;;;;;7.20;4.45;;;;;;;6.77;92.55;95762.78;5064453;28;20040;-71
2021/10/02 05:50:15;;;;;;;6.35;3.85;;;;;;;7.18;90.78;95788.06;5065062;28;20040;-70
2021/10/02 05:52:42;;;;;;;13.25;8.57;;;;;;;6.96;91.13;95782.09;5076955;28;20036;-70
2021/10/02 05:55:10;;;;;;;6.30;4.20;;;;;;;7.13;91.37;95787.81;5065857;28;20040;-70
2021/10/02 05:57:37;;;;;;;6.60;3.03;;;;;;;7.29;89.95;95787.56;5065910;28;20048;-70
2021/10/02 06:00:07;;;;;;;4.93;3.70;;;;;;;7.28;88.98;95785.97;5066574;28;20040;-71
2021/10/02 06:02:37;;;;;;;5.85;3.33;;;;;;;7.30;89.11;95778.81;5066352;28;20528;-70
2021/10/02 06:05:04;;;;;;;6.57;3.95;;;;;;;7.39;89.59;95798.44;5066542;28;20051;-71
2021/10/02 06:07:31;;;;;;;7.32;3.58;;;;;;;7.34;88.72;95795.59;5066262;28;20051;-70
2021/10/02 06:09:58;;;;;;;5.82;3.45;;;;;;;7.47;89.09;95803.50;5068601;28;20155;-70
2021/10/02 06:12:24;;;;;;;28.23;17.25;;;;;;;7.51;88.21;95805.69;5075200;28;20052;-71
2021/10/02 06:14:51;;;;;;;10.93;5.32;;;;;;;7.63;87.89;95809.38;5082545;28;20036;-69
2021/10/02 06:17:18;;;;;;;6.30;4.50;;;;;;;7.71;86.90;95805.88;5084063;28;20060;-69
2021/10/02 06:19:45;;;;;;;6.10;4.57;;;;;;;7.76;87.44;95799.13;5073359;28;20059;-70
2021/10/02 06:22:12;;;;;;;8.00;4.90;;;;;;;7.96;86.57;95808.81;5073932;28;20433;-72
2021/10/02 06:24:39;;;;;;;11.55;5.75;;;;;;;8.07;85.90;95800.50;5081077;28;20039;-72
2021/10/02 06:27:06;;;;;;;9.48;4.38;;;;;;;8.17;83.41;95806.13;5076194;28;20068;-72
2021/10/02 06:29:35;;;;;;;5.97;3.53;;;;;;;8.18;83.17;95805.16;5083760;28;20044;-71
2021/10/02 06:32:02;;;;;;;6.03;3.40;;;;;;;8.26;83.64;95800.81;5057960;28;20041;-72
2021/10/02 06:34:29;;;;;;;6.85;3.53;;;;;;;8.39;82.57;95799.06;5067400;28;20043;-71
2021/10/02 06:36:56;;;;;;;6.28;3.33;;;;;;;8.56;83.73;95799.56;5069906;28;20044;-72
2021/10/02 06:39:23;;;;;;;10.80;4.40;;;;;;;8.72;82.32;95808.03;5084068;28;20044;-71
2021/10/02 06:41:50;;;;;;;7.05;3.72;;;;;;;8.84;81.56;95803.03;5079449;28;20051;-71
2021/10/02 06:44:16;;;;;;;6.60;3.88;;;;;;;8.89;80.71;95809.25;5069781;28;20468;-72
2021/10/02 06:46:43;;;;;;;4.85;3.55;;;;;;;9.01;81.20;95801.69;5062668;28;20033;-72
2021/10/02 06:49:10;;;;;;;9.10;5.10;;;;;;;9.24;79.90;95803.94;5067129;28;20056;-71
2021/10/02 06:51:37;;;;;;;14.80;6.75;;;;;;;9.27;79.76;95803.53;5077332;28;20398;-71
2021/10/02 06:54:04;;;;;;;8.70;4.57;;;;;;;9.41;80.48;95800.94;5074880;28;20063;-71
2021/10/02 06:56:31;;;;;;;6.63;4.05;;;;;;;9.60;79.15;95804.53;5083463;28;20414;-71
2021/10/02 06:58:57;;;;;;;5.97;3.70;;;;;;;9.77;77.80;95806.53;5082842;28;20505;-71
2021/10/02 07:01:24;;;;;;;7.05;4.78;;;;;;;9.93;77.45;95802.72;5074709;28;20036;-70
2021/10/02 07:03:56;;;;;;;4.82;2.67;;;;;;;10.06;75.74;95808.91;5065278;28;20044;-70
2021/10/02 07:06:23;;;;;;;4.88;2.75;;;;;;;10.17;74.40;95815.28;5070482;28;20051;-71
2021/10/02 07:08:49;;;;;;;7.88;4.70;;;;;;;10.24;74.88;95800.47;5076644;28;20060;-71
2021/10/02 07:11:16;;;;;;;4.53;3.13;;;;;;;10.24;73.86;95790.03;5066835;28;20048;-71
2021/10/02 07:13:43;;;;;;;4.15;2.72;;;;;;;10.44;73.62;95811.66;5068701;28;20055;-71
2021/10/02 07:16:10;;;;;;;5.65;3.50;;;;;;;10.54;73.73;95806.00;5066537;28;20051;-72
2021/10/02 07:18:36;;;;;;;4.07;3.03;;;;;;;10.75;73.74;95804.09;5050890;28;20063;-72
2021/10/02 07:21:04;;;;;;;5.45;3.30;;;;;;;10.82;72.60;95787.44;5080594;28;20047;-72
2021/10/02 07:23:32;;;;;;;6.72;4.07;;;;;;;11.09;71.90;95802.91;5078625;28;20048;-70
2021/10/02 07:26:00;;;;;;;8.38;4.78;;;;;;;11.20;70.69;95799.66;5081726;28;20049;-71
2021/10/02 07:28:27;;;;;;;7.25;3.83;;;;;;;11.32;69.88;95788.53;5082464;28;20478;-70
2021/10/02 07:30:54;;;;;;;7.97;4.38;;;;;;;11.55;68.59;95798.41;5073267;28;20051;-70
2021/10/02 07:33:21;;;;;;;4.55;2.72;;;;;;;11.71;67.12;95805.69;5074422;28;20060;-70
2021/10/02 07:35:48;;;;;;;6.03;3.20;;;;;;;11.75;65.40;95798.25;5073882;28;20051;-70
2021/10/02 07:38:14;;;;;;;5.78;2.67;;;;;;;11.94;64.10;95794.69;5084701;28;20104;-70
2021/10/02 07:40:41;;;;;;;4.78;2.97;;;;;;;12.14;62.69;95778.03;5088271;28;20113;-71
2021/10/02 07:43:12;;;;;;;4.05;2.08;;;;;;;12.57;59.27;95792.81;5086542;28;20672;-70
2021/10/02 07:45:42;;;;;;;3.55;2.70;;;;;;;12.76;58.73;95796.97;5081545;28;20036;-70
2021/10/02 07:48:14;;;;;;;4.55;2.67;;;;;;;12.74;57.57;95772.88;5083102;28;20058;-70
2021/10/02 07:50:41;;;;;;;5.57;2.95;;;;;;;13.09;57.43;95790.53;5087863;28;20416;-70
2021/10/02 07:53:09;;;;;;;3.22;2.25;;;;;;;13.26;56.12;95779.44;5073501;28;20047;-69
2021/10/02 07:55:38;;;;;;;2.95;1.58;;;;;;;13.43;54.64;95780.38;5079766;28;20044;-69
2021/10/02 07:58:05;;;;;;;3.63;2.85;;;;;;;13.50;54.43;95775.84;5082640;28;20097;-69
2021/10/02 08:00:32;;;;;;;2.92;2.22;;;;;;;13.69;53.14;95778.38;5079508;28;20832;-70
2021/10/02 08:02:59;;;;;;;2.85;2.03;;;;;;;13.80;53.61;95769.75;5081685;28;20048;-70
2021/10/02 08:05:26;;;;;;;3.22;2.08;;;;;;;13.60;52.24;95743.91;5084434;28;20059;-69
2021/10/02 08:07:53;;;;;;;5.60;2.33;;;;;;;13.85;52.45;95767.22;5086256;28;20047;-70
2021/10/02 08:10:25;;;;;;;2.70;1.73;;;;;;;13.96;52.54;95763.81;5080102;28;20068;-69
2021/10/02 08:12:52;;;;;;;3.53;2.70;;;;;;;14.11;52.07;95759.91;5071543;28;20536;-69
2021/10/02 08:15:21;;;;;;;3.95;2.47;;;;;;;14.20;52.45;95763.78;5087218;28;20501;-70
2021/10/02 08:17:50;;;;;;;3.88;2.13;;;;;;;14.22;49.54;95771.41;5074374;28;20051;-70
2021/10/02 08:20:18;;;;;;;4.63;2.35;;;;;;;14.38;51.16;95759.41;5072970;28;20571;-70
2021/10/02 08:22:49;;;;;;;5.20;2.10;;;;;;;14.43;49.44;95772.63;5081874;28;20039;-70
2021/10/02 08:25:17;;;;;;;2.92;1.90;;;;;;;14.40;51.34;95752.13;5073613;28;20064;-70
2021/10/02 08:27:46;;;;;;;3.42;2.15;;;;;;;14.64;50.86;95758.94;5082748;28;20568;-69
2021/10/02 08:30:15;;;;;;;6.22;2.10;;;;;;;14.77;49.10;95762.31;5082181;28;20429;-69
2021/10/02 08:32:42;;;;;;;4.00;2.08;;;;;;;14.72;50.22;95761.16;5065174;28;20059;-69
2021/10/02 08:35:10;;;;;;;2.78;1.98;;;;;;;14.84;47.98;95752.47;5069207;28;20060;-69
2021/10/02 08:37:38;;;;;;;3.70;2.60;;;;;;;14.95;49.14;95758.69;5059188;28;20043;-70
2021/10/02 08:40:09;;;;;;;3.33;1.67;;;;;;;14.96;48.05;95755.81;5085901;28;20082;-70
2021/10/02 08:42:40;;;;;;;3.15;1.77;;;;;;;15.20;47.07;95751.25;5084495;28;20040;-70
2021/10/02 08:45:08;;;;;;;6.38;2.88;;;;;;;15.36;46.05;95754.94;5065501;28;20437;-70
2021/10/02 08:47:38;;;;;;;8.15;2.00;;;;;;;15.52;48.25;95757.78;5072419;28;20044;-70
2021/10/02 08:50:07;;;;;;;2.58;1.80;;;;;;;15.49;46.57;95759.06;5077958;28;20060;-69
2021/10/02 08:52:34;;;;;;;2.53;1.58;;;;;;;15.70;47.72;95749.69;5073949;28;20510;-70
2021/10/02 08:55:03;;;;;;;1.77;1.48;;;;;;;15.89;46.06;95744.19;5084644;28;20624;-70
2021/10/02 08:57:34;;;;;;;2.50;1.83;;;;;;;16.11;45.04;95749.47;5076456;28;20055;-69
2021/10/02 09:00:03;;;;;;;3.03;1.50;;;;;;;16.03;46.40;95746.22;5065353;28;20134;-69
2021/10/02 09:02:30;;;;;;;2.42;1.80;;;;;;;16.15;46.27;95742.66;5078761;28;20055;-69
2021/10/02 09:04:58;;;;;;;3.78;2.00;;;;;;;16.37;45.02;95737.44;5059701;28;20517;-70
2021/10/02 09:07:25;;;;;;;4.07;2.03;;;;;;;16.45;44.98;95729.09;5079988;28;20040;-71
2021/10/02 09:09:56;;;;;;;2.22;1.73;;;;;;;16.72;44.60;95744.91;5085583;28;20127;-70
2021/10/02 09:12:23;;;;;;;2.78;2.05;;;;;;;16.59;42.57;95735.59;5085794;28;20052;-69
2021/10/02 09:14:52;;;;;;;2.83;2.08;;;;;;;16.63;43.57;95741.94;5076023;28;20041;-69
2021/10/02 09:17:20;;;;;;;2.55;1.65;;;;;;;16.86;45.59;95729.56;5071007;28;20089;-69
2021/10/02 09:19:48;;;;;;;2.65;2.08;;;;;;;16.80;41.18;95736.59;5074290;28;20407;-69
2021/10/02 09:22:18;;;;;;;2.65;1.98;;;;;;;17.05;42.38;95731.84;5084315;28;20049;-69
2021/10/02 09:24:46;;;;;;;5.03;3.15;;;;;;;17.12;41.99;95716.66;5084638;28;20044;-69
2021/10/02 09:27:17;;;;;;;2.78;1.80;;;;;;;17.49;41.97;95721.16;5085240;28;20504;-69
2021/10/02 09:29:54;;;;;;;5.30;3.15;;;;;;;17.74;41.62;95710.78;5085091;28;20036;-69
2021/10/02 09:32:34;;;;;;;3.05;1.75;;;;;;;17.71;40.77;95698.13;5083082;28;20051;-69
2021/10/02 09:35:06;;;;;;;3.20;2.58;;;;;;;17.80;40.05;95700.28;5079830;28;20447;-70
2021/10/02 09:37:35;;;;;;;2.08;1.30;;;;;;;18.25;39.41;95704.22;5065741;28;20049;-69
2021/10/02 09:40:07;;;;;;;4.47;2.30;;;;;;;18.19;39.57;95687.59;5076383;28;20052;-70
2021/10/02 09:42:35;;;;;;;2.55;1.70;;;;;;;18.60;40.49;95708.00;5050065;28;20056;-70
2021/10/02 09:45:09;;;;;;;4.07;1.73;;;;;;;19.13;38.21;95706.03;5080558;28;20048;-69
2021/10/02 09:47:38;;;;;;;2.17;1.55;;;;;;;19.38;39.96;95701.81;5072775;28;20047;-70
2021/10/02 09:50:13;;;;;;;2.35;1.33;;;;;;;18.86;37.79;95685.16;5073028;28;20463;-69
2021/10/02 09:52:46;;;;;;;2.80;1.70;;;;;;;19.33;38.74;95704.44;5069427;28;20040;-69
2021/10/02 09:55:32;;;;;;;5.40;2.00;;;;;;;19.48;35.67;95701.78;5071725;28;20043;-69
2021/10/02 09:58:00;;;;;;;3.72;2.60;;;;;;;19.71;35.34;95692.50;5084012;28;20463;-69
2021/10/02 10:00:33;;;;;;;5.20;2.88;;;;;;;19.83;34.90;95679.03;5060077;28;20066;-69
2021/10/02 10:03:08;;;;;;;15.02;6.70;;;;;;;20.01;35.64;95693.53;5077954;28;20044;-70
2021/10/02 10:05:37;;;;;;;16.35;8.73;;;;;;;20.05;36.11;95684.00;5076491;28;20048;-69
2021/10/02 10:08:07;;;;;;;13.48;6.90;;;;;;;19.98;33.19;95683.50;5077938;28;20052;-69
2021/10/02 10:10:37;;;;;;;11.60;5.75;;;;;;;19.93;35.33;95681.63;5068068;28;20052;-69
2021/10/02 10:13:12;;;;;;;6.07;3.78;;;;;;;20.21;34.36;95688.16;5062637;28;20048;-69
2021/10/02 10:15:44;;;;;;;24.75;11.27;;;;;;;20.53;34.75;95678.25;5067255;28;20041;-70
2021/10/02 10:18:25;;;;;;;5.65;3.15;;;;;;;20.74;34.67;95669.16;5082292;28;20484;-69
2021/10/02 10:20:58;;;;;;;2.28;1.67;;;;;;;20.95;33.79;95679.59;5077748;28;20102;-69
2021/10/02 10:23:36;;;;;;;3.35;2.55;;;;;;;21.16;35.29;95681.00;5083300;28;20421;-69
2021/10/02 10:26:06;;;;;;;3.33;2.08;;;;;;;21.65;32.54;95675.84;5065252;28;20045;-69
2021/10/02 10:28:36;;;;;;;2.92;1.85;;;;;;;21.58;34.99;95681.47;5070590;28;20040;-69
2021/10/02 10:31:22;;;;;;;2.53;1.75;;;;;;;21.48;32.28;95676.25;5060950;28;20040;-69
2021/10/02 10:33:56;;;;;;;4.25;2.25;;;;;;;21.42;33.50;95672.84;5069146;28;20048;-69
2021/10/02 10:36:28;;;;;;;4.47;3.40;;;;;;;21.41;32.53;95671.28;5066338;28;20047;-69
2021/10/02 10:38:55;;;;;;;2.90;1.73;;;;;;;21.83;32.62;95675.13;5066911;28;20033;-70
2021/10/02 10:41:24;;;;;;;6.35;1.70;;;;;;;22.18;32.42;95667.81;5066795;28;20041;-69
2021/10/02 10:43:51;;;;;;;2.38;1.45;;;;;;;22.43;29.66;95664.09;5086604;28;20040;-69
2021/10/02 10:46:22;;;;;;;1.92;1.55;;;;;;;22.09;32.47;95654.44;5068325;28;20079;-69
2021/10/02 10:48:49;;;;;;;6.55;2.33;;;;;;;22.31;31.67;95648.59;5086176;28;20105;-69
2021/10/02 10:51:20;;;;;;;7.80;5.22;;;;;;;22.09;31.34;95653.63;5069731;28;20044;-69
2021/10/02 10:53:49;;;;;;;5.70;3.60;;;;;;;22.11;32.23;95639.00;5066786;28;20054;-69
2021/10/02 10:56:34;;;;;;;2.70;1.55;;;;;;;22.16;30.67;95654.06;5069072;28;20059;-69
2021/10/02 10:59:02;;;;;;;2.47;1.52;;;;;;;22.39;29.20;95641.09;5069865;28;20487;-69
2021/10/02 11:01:35;;;;;;;6.85;4.13;;;;;;;22.02;32.12;95648.69;5077374;28;20040;-69
2021/10/02 11:04:04;;;;;;;4.40;2.00;;;;;;;21.61;31.84;95627.09;5059910;28;20044;-69
2021/10/02 11:07:00;;;;;;;2.38;1.70;;;;;;;21.86;30.98;95640.09;5056541;28;20048;-69
2021/10/02 11:09:41;;;;;;;5.13;2.20;;;;;;;21.90;32.09;95645.63;5046924;28;20064;-66
2021/10/02 11:12:12;;;;;;;4.60;3.17;;;;;;;22.23;32.66;95646.53;5074776;28;20049;-68
2021/10/02 11:22:34;;;;;;;2.90;1.70;;;;;;;22.66;29.23;95630.59;5116769;27;20135;-69
2021/10/02 11:25:15;;;;;;;3.33;2.33;;;;;;;23.21;31.74;95634.56;5124597;27;20103;-70
2021/10/02 11:27:41;;;;;;;3.25;2.22;;;;;;;23.17;30.93;95628.25;5121920;27;20043;-70
2021/10/02 11:30:13;;;;;;;2.22;1.63;;;;;;;23.68;30.55;95627.34;5122889;27;20039;-70
2021/10/02 11:32:40;;;;;;;2.75;1.70;;;;;;;23.01;30.74;95623.16;5118104;27;20043;-69
2021/10/02 11:35:34;;;;;;;3.60;2.00;;;;;;;23.01;30.86;95619.72;5120851;27;20035;-70
2021/10/02 11:38:07;;;;;;;3.08;1.88;;;;;;;23.60;28.28;95620.06;5120415;27;20055;-70
2021/10/02 11:40:36;;;;;;;1.70;1.50;;;;;;;24.10;28.18;95617.50;5121010;27;20035;-70
2021/10/02 11:43:12;;;;;;;2.53;1.90;;;;;;;24.14;27.16;95618.47;5123080;27;20405;-70
2021/10/02 11:45:41;;;;;;;2.20;1.50;;;;;;;23.69;29.61;95612.97;5121002;27;20068;-70
2021/10/02 11:48:31;;;;;;;2.38;1.60;;;;;;;23.75;30.04;95622.44;5121274;27;20039;-70
2021/10/02 11:51:23;;;;;;;2.30;1.65;;;;;;;24.03;28.53;95606.47;5119101;27;20511;-69
2021/10/02 11:54:09;;;;;;;2.15;1.67;;;;;;;24.27;29.19;95616.09;5102213;28;20112;-70
2021/10/02 11:56:36;;;;;;;2.33;1.55;;;;;;;23.77;29.78;95614.94;5120993;27;20044;-69
2021/10/02 11:59:05;;;;;;;4.05;2.58;;;;;;;23.71;28.98;95616.13;5120724;27;20055;-70
2021/10/02 12:01:43;;;;;;;2.10;1.55;;;;;;;24.30;27.80;95615.50;5122676;27;20027;-70
2021/10/02 12:04:13;;;;;;;2.35;1.90;;;;;;;24.19;30.29;95621.03;5125310;27;20480;-69
2021/10/02 12:06:46;;;;;;;1.98;1.38;;;;;;;24.26;30.29;95617.22;5121187;27;20043;-69
2021/10/02 12:09:15;;;;;;;5.30;2.10;;;;;;;23.50;28.25;95605.09;5120092;27;20043;-69
2021/10/02 12:11:46;;;;;;;2.83;1.90;;;;;;;24.78;28.57;95609.69;5103829;27;20063;-70
2021/10/02 12:14:20;;;;;;;3.38;2.03;;;;;;;25.01;28.39;95618.44;5123613;27;20475;-69
2021/10/02 12:17:02;;;;;;;1.92;1.38;;;;;;;25.75;25.95;95615.25;5120831;27;20452;-69
2021/10/02 12:19:31;;;;;;;2.70;1.70;;;;;;;25.37;25.87;95610.38;5129066;27;20099;-69
2021/10/02 12:22:01;;;;;;;7.82;2.17;;;;;;;24.52;28.24;95607.56;5120136;27;20047;-69
2021/10/02 12:24:30;;;;;;;1.88;1.60;;;;;;;24.43;29.81;95612.00;5123346;27;20043;-69
2021/10/02 12:27:09;;;;;;;2.55;2.10;;;;;;;24.66;29.55;95607.53;5122762;27;20051;-69
2021/10/02 12:29:46;;;;;;;3.72;2.50;;;;;;;25.14;28.66;95600.81;5118776;27;20042;-69
2021/10/02 12:32:18;;;;;;;2.50;2.03;;;;;;;24.97;28.89;95615.63;5113123;27;20552;-69
2021/10/02 12:34:55;;;;;;;3.45;1.52;;;;;;;25.31;27.77;95606.25;5107130;28;20040;-67
2021/10/02 12:37:26;;;;;;;2.50;1.67;;;;;;;25.31;27.83;95594.81;5105857;28;20493;-67
2021/10/02 12:39:56;;;;;;;25.58;2.20;;;;;;;25.11;27.99;95602.19;5104370;27;20473;-67
2021/10/02 12:42:59;;;;;;;2.85;1.88;;;;;;;25.12;27.87;95618.97;5107189;27;20036;-67
2021/10/02 12:45:29;;;;;;;2.63;1.65;;;;;;;24.99;27.42;95610.75;5105568;28;20043;-67
2021/10/02 12:48:02;;;;;;;2.47;2.05;;;;;;;25.78;26.99;95607.72;5106087;27;20535;-67
2021/10/02 12:50:34;;;;;;;2.00;1.43;;;;;;;25.40;28.75;95613.53;5106995;28;20040;-67
2021/10/02 12:53:02;;;;;;;2.03;1.50;;;;;;;25.89;28.16;95609.00;5105873;28;20043;-67
2021/10/02 12:55:29;;;;;;;4.75;1.80;;;;;;;25.27;27.29;95623.19;5110592;27;20523;-67
2021/10/02 12:57:56;;;;;;;2.35;1.80;;;;;;;25.87;26.66;95595.19;5106844;27;20051;-67